Time;durP1;ratioP1;P1;durP2;ratioP2;P2;SDS_P1;SDS_P2;PMS_P1;PMS_P2;Temp;Humidity;BMP_temperature;BMP_pressure;BME280_temperature;BME280_humidity;BME280_pressure;Samples;Min_cycle;Max_cycle;Signal;HPM_P1;HPM_P2
2021/06/09 00:00:57;;;;;;;8.63;5.20;;;;;;;;;;143737;570;46021;-87
2021/06/09 00:03:23;;;;;;;7.35;5.47;;;;;;;;;;143736;572;46020;-86
2021/06/09 00:05:50;;;;;;;6.12;4.93;;;;;;;;;;143735;569;47034;-87
2021/06/09 00:08:19;;;;;;;7.90;5.05;;;;;;;;;;143736;597;46021;-86
2021/06/09 00:10:48;;;;;;;13.43;7.15;;;;;;;;;;143735;612;46020;-85
2021/06/09 00:13:15;;;;;;;9.73;6.65;;;;;;;;;;143736;607;46012;-86
2021/06/09 00:15:43;;;;;;;9.05;5.30;;;;;;;;;;143734;603;46022;-86
2021/06/09 00:18:13;;;;;;;6.43;5.57;;;;;;;;;;143733;579;46012;-87
2021/06/09 00:20:39;;;;;;;6.72;4.57;;;;;;;;;;143735;585;47020;-84
2021/06/09 00:23:09;;;;;;;8.50;4.97;;;;;;;;;;143736;569;46013;-86
2021/06/09 00:25:36;;;;;;;6.75;5.32;;;;;;;;;;143735;600;46023;-85
2021/06/09 00:28:03;;;;;;;8.77;5.50;;;;;;;;;;143735;603;46020;-86
2021/06/09 00:30:34;;;;;;;11.98;6.47;;;;;;;;;;143736;587;46020;-86
2021/06/09 00:33:02;;;;;;;7.03;5.03;;;;;;;;;;143736;586;46012;-86
2021/06/09 00:35:30;;;;;;;8.30;5.35;;;;;;;;;;143734;575;46022;-87
2021/06/09 00:37:57;;;;;;;8.45;5.57;;;;;;;;;;143735;573;46921;-85
2021/06/09 00:40:24;;;;;;;13.68;5.28;;;;;;;;;;143737;569;46014;-86
2021/06/09 00:43:05;;;;;;;11.18;5.05;;;;;;;;;;143736;584;46012;-87
2021/06/09 00:45:32;;;;;;;9.93;5.50;;;;;;;;;;143737;586;46022;-88
2021/06/09 00:47:58;;;;;;;7.62;4.90;;;;;;;;;;143734;565;46014;-85
2021/06/09 00:50:25;;;;;;;5.75;5.00;;;;;;;;;;143737;589;46020;-85
2021/06/09 00:52:52;;;;;;;8.88;5.28;;;;;;;;;;143738;690;46013;-86
2021/06/09 00:55:19;;;;;;;10.25;5.72;;;;;;;;;;143736;597;46014;-86
2021/06/09 00:57:49;;;;;;;11.55;4.55;;;;;;;;;;143735;588;46012;-86
2021/06/09 01:00:19;;;;;;;10.63;4.72;;;;;;;;;;143738;564;46014;-86
2021/06/09 01:02:46;;;;;;;6.80;6.07;;;;;;;;;;143734;598;46012;-86
2021/06/09 01:05:13;;;;;;;12.68;5.90;;;;;;;;;;143732;576;46022;-86
2021/06/09 01:07:40;;;;;;;8.38;5.72;;;;;;;;;;143732;589;46013;-86
2021/06/09 01:10:08;;;;;;;7.68;5.75;;;;;;;;;;143734;634;47020;-87
2021/06/09 01:12:34;;;;;;;8.82;5.20;;;;;;;;;;143736;579;46012;-86
2021/06/09 01:15:01;;;;;;;12.37;5.60;;;;;;;;;;143735;604;46022;-85
2021/06/09 01:17:28;;;;;;;6.95;5.00;;;;;;;;;;143735;754;46012;-86
2021/06/09 01:19:55;;;;;;;9.98;4.62;;;;;;;;;;143734;646;47020;-86
2021/06/09 01:22:23;;;;;;;14.98;6.05;;;;;;;;;;143735;583;46013;-86
2021/06/09 01:24:53;;;;;;;7.70;5.22;;;;;;;;;;143733;621;46023;-86
2021/06/09 01:27:24;;;;;;;9.82;5.45;;;;;;;;;;143731;646;46012;-86
2021/06/09 01:29:51;;;;;;;7.75;4.85;;;;;;;;;;143735;584;46020;-86
2021/06/09 01:32:19;;;;;;;12.00;5.43;;;;;;;;;;143733;574;46013;-87
2021/06/09 01:34:47;;;;;;;9.73;5.28;;;;;;;;;;143732;584;46022;-86
2021/06/09 01:37:15;;;;;;;7.62;4.90;;;;;;;;;;143733;583;46020;-86
2021/06/09 01:39:42;;;;;;;9.05;5.53;;;;;;;;;;143732;611;46021;-86
2021/06/09 01:42:10;;;;;;;16.20;5.35;;;;;;;;;;143734;577;46012;-86
2021/06/09 01:44:41;;;;;;;11.60;5.75;;;;;;;;;;143732;578;46014;-85
2021/06/09 01:47:07;;;;;;;7.70;5.53;;;;;;;;;;143732;579;46012;-86
2021/06/09 01:49:34;;;;;;;4.95;4.25;;;;;;;;;;143734;587;46048;-86
2021/06/09 01:52:03;;;;;;;10.23;5.10;;;;;;;;;;143734;564;46012;-86
2021/06/09 01:54:30;;;;;;;6.50;4.80;;;;;;;;;;143734;683;46023;-87
2021/06/09 01:56:59;;;;;;;9.52;5.18;;;;;;;;;;143737;594;46012;-86
2021/06/09 01:59:25;;;;;;;8.20;5.70;;;;;;;;;;143733;591;46018;-86
2021/06/09 02:01:53;;;;;;;8.85;5.10;;;;;;;;;;143736;671;46023;-86
2021/06/09 02:04:23;;;;;;;7.55;5.55;;;;;;;;;;143731;595;47020;-86
2021/06/09 02:06:50;;;;;;;10.52;5.12;;;;;;;;;;143732;564;46010;-85
2021/06/09 02:09:17;;;;;;;11.43;6.55;;;;;;;;;;143734;582;46019;-86
2021/06/09 02:11:45;;;;;;;15.38;5.85;;;;;;;;;;143734;622;46022;-86
2021/06/09 02:14:12;;;;;;;8.68;6.45;;;;;;;;;;143733;595;46018;-86
2021/06/09 02:16:40;;;;;;;7.43;5.78;;;;;;;;;;143730;615;47010;-85
2021/06/09 02:19:08;;;;;;;7.97;5.57;;;;;;;;;;143733;569;46018;-86
2021/06/09 02:21:37;;;;;;;6.40;5.80;;;;;;;;;;143735;650;46011;-86
2021/06/09 02:24:07;;;;;;;9.07;6.03;;;;;;;;;;143732;654;46021;-85
2021/06/09 02:26:35;;;;;;;11.93;5.72;;;;;;;;;;143731;578;46010;-85
2021/06/09 02:29:04;;;;;;;7.40;5.22;;;;;;;;;;143734;663;46018;-87
2021/06/09 02:31:30;;;;;;;9.02;5.87;;;;;;;;;;143735;643;46011;-86
2021/06/09 02:33:58;;;;;;;8.73;5.20;;;;;;;;;;143735;577;46012;-87
2021/06/09 02:36:25;;;;;;;11.82;5.85;;;;;;;;;;143732;576;46012;-86
2021/06/09 02:38:52;;;;;;;6.95;5.43;;;;;;;;;;143734;566;46019;-87
2021/06/09 02:41:19;;;;;;;10.18;5.25;;;;;;;;;;143734;632;46010;-86
2021/06/09 02:43:48;;;;;;;9.90;6.65;;;;;;;;;;143732;582;46020;-86
2021/06/09 02:46:20;;;;;;;11.73;6.25;;;;;;;;;;143733;645;46010;-87
2021/06/09 02:48:52;;;;;;;10.65;5.47;;;;;;;;;;143735;693;46018;-86
2021/06/09 02:51:21;;;;;;;8.30;5.65;;;;;;;;;;143736;583;46010;-90
2021/06/09 02:54:16;;;;;;;8.52;5.62;;;;;;;;;;143732;566;46027;-86
2021/06/09 02:57:38;;;;;;;7.28;5.35;;;;;;;;;;143734;632;46010;-86
2021/06/09 03:00:17;;;;;;;12.05;5.78;;;;;;;;;;143733;602;46019;-87
2021/06/09 03:03:20;;;;;;;8.77;6.12;;;;;;;;;;143734;592;46023;-86
2021/06/09 03:06:03;;;;;;;10.00;5.78;;;;;;;;;;143734;751;46020;-86
2021/06/09 03:08:43;;;;;;;7.00;5.35;;;;;;;;;;143731;668;46921;-86
2021/06/09 03:11:28;;;;;;;11.55;5.57;;;;;;;;;;143733;637;46018;-87
2021/06/09 03:17:30;;;;;;;8.00;4.97;;;;;;;;;;143733;576;46018;-86
2021/06/09 03:20:22;;;;;;;13.15;5.60;;;;;;;;;;143733;601;46012;-86
2021/06/09 03:23:25;;;;;;;10.07;5.80;;;;;;;;;;143733;571;46019;-86
2021/06/09 03:26:01;;;;;;;10.27;6.10;;;;;;;;;;143735;647;46022;-87
2021/06/09 03:28:37;;;;;;;8.55;6.20;;;;;;;;;;143735;582;46018;-87
2021/06/09 03:31:07;;;;;;;9.35;6.30;;;;;;;;;;143733;565;46010;-86
2021/06/09 03:33:48;;;;;;;11.77;7.03;;;;;;;;;;143734;581;46018;-85
2021/06/09 03:36:33;;;;;;;14.52;6.22;;;;;;;;;;143735;611;46010;-86
2021/06/09 03:39:05;;;;;;;13.88;5.62;;;;;;;;;;143733;643;46021;-85
2021/06/09 03:41:57;;;;;;;32.00;6.07;;;;;;;;;;143735;569;46010;-86
2021/06/09 03:44:36;;;;;;;15.68;6.10;;;;;;;;;;143733;611;46019;-85
2021/06/09 03:47:04;;;;;;;19.17;7.32;;;;;;;;;;143736;643;46010;-88
2021/06/09 03:49:44;;;;;;;10.57;5.60;;;;;;;;;;143736;575;46018;-89
2021/06/09 03:52:41;;;;;;;10.13;6.18;;;;;;;;;;143737;634;45023;-86
2021/06/09 03:55:16;;;;;;;8.93;5.57;;;;;;;;;;143737;633;46018;-88
2021/06/09 03:57:43;;;;;;;13.07;6.83;;;;;;;;;;143736;674;46010;-85
2021/06/09 04:00:10;;;;;;;12.88;6.22;;;;;;;;;;143733;585;46020;-85
2021/06/09 04:02:41;;;;;;;11.80;6.82;;;;;;;;;;143733;687;46022;-85
2021/06/09 04:05:10;;;;;;;12.02;6.65;;;;;;;;;;143736;569;46018;-86
2021/06/09 04:07:38;;;;;;;8.93;5.72;;;;;;;;;;143736;584;46010;-86
2021/06/09 04:10:06;;;;;;;12.20;5.97;;;;;;;;;;143733;617;46021;-86
2021/06/09 04:12:35;;;;;;;9.73;8.45;;;;;;;;;;143734;571;45920;-86
2021/06/09 04:15:04;;;;;;;13.13;8.63;;;;;;;;;;143735;569;46019;-87
2021/06/09 04:17:33;;;;;;;20.77;8.63;;;;;;;;;;143736;569;46022;-86
2021/06/09 04:20:03;;;;;;;21.45;8.57;;;;;;;;;;143732;592;46020;-86
2021/06/09 04:22:30;;;;;;;18.33;8.98;;;;;;;;;;143733;579;46012;-85
2021/06/09 04:24:57;;;;;;;18.02;9.38;;;;;;;;;;143735;589;46018;-86
2021/06/09 04:27:28;;;;;;;17.60;8.27;;;;;;;;;;143738;578;45022;-85
2021/06/09 04:29:57;;;;;;;18.70;9.57;;;;;;;;;;143735;627;46019;-86
2021/06/09 04:32:25;;;;;;;16.52;8.00;;;;;;;;;;143732;575;46010;-86
2021/06/09 04:34:58;;;;;;;17.70;10.00;;;;;;;;;;143734;582;46018;-86
2021/06/09 04:37:26;;;;;;;11.70;8.52;;;;;;;;;;143734;564;46011;-85
2021/06/09 04:39:53;;;;;;;9.75;8.05;;;;;;;;;;143733;627;46020;-85
2021/06/09 04:42:21;;;;;;;21.15;9.07;;;;;;;;;;143735;593;46012;-87
2021/06/09 04:44:48;;;;;;;15.05;8.65;;;;;;;;;;143734;564;46019;-88
2021/06/09 04:47:15;;;;;;;12.80;8.30;;;;;;;;;;143734;579;46010;-85
2021/06/09 04:49:44;;;;;;;15.43;9.00;;;;;;;;;;143734;565;45912;-87
2021/06/09 04:52:12;;;;;;;15.23;7.82;;;;;;;;;;143733;639;46010;-85
2021/06/09 04:54:39;;;;;;;13.50;8.05;;;;;;;;;;143733;588;46018;-85
2021/06/09 04:57:08;;;;;;;11.95;8.23;;;;;;;;;;143736;632;46022;-87
2021/06/09 04:59:34;;;;;;;9.80;7.32;;;;;;;;;;143733;607;46020;-86
2021/06/09 05:02:02;;;;;;;11.60;8.98;;;;;;;;;;143736;622;45022;-88
2021/06/09 05:04:28;;;;;;;14.68;8.13;;;;;;;;;;143734;613;46018;-87
2021/06/09 05:06:55;;;;;;;15.68;9.93;;;;;;;;;;143737;585;46010;-85
2021/06/09 05:09:23;;;;;;;17.70;9.02;;;;;;;;;;143732;572;47021;-85
2021/06/09 05:12:17;;;;;;;18.02;7.37;;;;;;;;;;143732;577;46920;-85
2021/06/09 05:15:05;;;;;;;11.30;7.90;;;;;;;;;;143732;578;46019;-87
2021/06/09 05:17:48;;;;;;;10.45;7.93;;;;;;;;;;143735;576;46010;-87
2021/06/09 05:20:36;;;;;;;15.68;8.82;;;;;;;;;;143731;564;47020;-88
2021/06/09 05:23:39;;;;;;;14.15;8.52;;;;;;;;;;143732;569;46010;-86
2021/06/09 05:26:06;;;;;;;12.37;7.95;;;;;;;;;;143732;589;46046;-86
2021/06/09 05:28:39;;;;;;;14.82;7.75;;;;;;;;;;143737;565;46010;-86
2021/06/09 05:31:08;;;;;;;17.58;8.75;;;;;;;;;;143733;653;46021;-85
2021/06/09 05:33:36;;;;;;;13.18;9.05;;;;;;;;;;143736;620;45022;-86
2021/06/09 05:36:03;;;;;;;13.25;8.80;;;;;;;;;;143733;668;46013;-87
2021/06/09 05:38:31;;;;;;;9.65;8.25;;;;;;;;;;143737;593;46010;-87
2021/06/09 05:41:00;;;;;;;18.62;8.98;;;;;;;;;;143732;607;46020;-86
2021/06/09 05:43:28;;;;;;;14.52;9.73;;;;;;;;;;143733;651;46010;-86
2021/06/09 05:45:56;;;;;;;18.40;10.15;;;;;;;;;;143734;583;46019;-86
2021/06/09 05:48:23;;;;;;;15.32;9.45;;;;;;;;;;143735;590;46010;-85
2021/06/09 05:50:52;;;;;;;14.13;8.98;;;;;;;;;;143733;586;46020;-85
2021/06/09 05:53:22;;;;;;;15.98;8.95;;;;;;;;;;143732;585;46010;-86
2021/06/09 05:55:48;;;;;;;15.32;8.93;;;;;;;;;;143735;587;46018;-85
2021/06/09 05:58:22;;;;;;;13.05;9.57;;;;;;;;;;143736;619;46010;-86
2021/06/09 06:00:55;;;;;;;17.17;9.05;;;;;;;;;;143732;587;46027;-88
2021/06/09 06:03:25;;;;;;;14.52;9.85;;;;;;;;;;143731;564;46022;-87
2021/06/09 06:06:00;;;;;;;17.92;11.25;;;;;;;;;;143736;596;46017;-86
2021/06/09 06:08:30;;;;;;;16.15;11.35;;;;;;;;;;143735;651;46023;-86
2021/06/09 06:11:06;;;;;;;20.58;9.85;;;;;;;;;;143732;593;46020;-87
2021/06/09 06:13:37;;;;;;;13.25;9.38;;;;;;;;;;143732;610;46011;-87
2021/06/09 06:16:04;;;;;;;11.35;9.32;;;;;;;;;;143736;625;46018;-85
2021/06/09 06:18:36;;;;;;;17.60;10.55;;;;;;;;;;143735;581;46010;-87
2021/06/09 06:21:04;;;;;;;12.15;9.73;;;;;;;;;;143732;644;46020;-86
2021/06/09 06:23:32;;;;;;;14.70;9.80;;;;;;;;;;143730;602;47010;-88
2021/06/09 06:26:00;;;;;;;20.23;9.95;;;;;;;;;;143735;575;46016;-86
2021/06/09 06:28:27;;;;;;;18.35;10.23;;;;;;;;;;143736;591;46011;-87
2021/06/09 06:30:56;;;;;;;21.23;10.55;;;;;;;;;;143733;589;46021;-88
2021/06/09 06:33:25;;;;;;;17.42;10.45;;;;;;;;;;143733;569;46010;-88
2021/06/09 06:35:53;;;;;;;13.48;8.88;;;;;;;;;;143735;636;46019;-85
2021/06/09 06:38:20;;;;;;;17.37;9.43;;;;;;;;;;143734;586;46010;-86
2021/06/09 06:40:48;;;;;;;12.05;7.78;;;;;;;;;;143733;578;46012;-85
2021/06/09 06:43:15;;;;;;;16.27;9.13;;;;;;;;;;143732;579;46011;-85
2021/06/09 06:45:43;;;;;;;21.12;8.98;;;;;;;;;;143734;610;46019;-88
2021/06/09 06:48:10;;;;;;;15.50;9.45;;;;;;;;;;143734;597;46010;-85
2021/06/09 06:50:38;;;;;;;18.75;9.65;;;;;;;;;;143735;677;46019;-87
2021/06/09 06:53:08;;;;;;;13.27;8.48;;;;;;;;;;143733;583;46022;-86
2021/06/09 06:55:35;;;;;;;12.27;9.07;;;;;;;;;;143734;613;46018;-86
2021/06/09 06:58:02;;;;;;;13.25;8.82;;;;;;;;;;143736;615;46010;-85
2021/06/09 07:00:29;;;;;;;10.85;7.28;;;;;;;;;;143732;666;46048;-85
2021/06/09 07:02:57;;;;;;;14.65;7.72;;;;;;;;;;143732;596;46010;-84
2021/06/09 07:05:29;;;;;;;15.63;7.70;;;;;;;;;;143732;594;46013;-87
2021/06/09 07:08:01;;;;;;;14.20;6.60;;;;;;;;;;143734;603;46010;-86
2021/06/09 07:10:28;;;;;;;9.60;6.53;;;;;;;;;;143735;628;46014;-86
2021/06/09 07:12:59;;;;;;;16.02;8.48;;;;;;;;;;143734;576;46010;-86
2021/06/09 07:15:27;;;;;;;17.35;6.95;;;;;;;;;;143735;632;46018;-86
2021/06/09 07:17:58;;;;;;;10.57;5.68;;;;;;;;;;143735;585;46022;-87
2021/06/09 07:20:28;;;;;;;9.75;6.25;;;;;;;;;;143733;655;46020;-86
2021/06/09 07:22:57;;;;;;;11.48;5.95;;;;;;;;;;143736;630;46010;-85
2021/06/09 07:25:25;;;;;;;10.50;6.65;;;;;;;;;;143735;624;46018;-87
2021/06/09 07:27:54;;;;;;;10.65;6.40;;;;;;;;;;143736;582;46010;-86
2021/06/09 07:30:27;;;;;;;9.43;5.60;;;;;;;;;;143735;579;46021;-85
2021/06/09 07:32:53;;;;;;;9.10;5.50;;;;;;;;;;143733;616;46010;-86
2021/06/09 07:35:20;;;;;;;12.15;5.97;;;;;;;;;;143734;564;46012;-87
2021/06/09 07:37:48;;;;;;;13.32;5.82;;;;;;;;;;143736;598;46010;-86
2021/06/09 07:40:26;;;;;;;11.73;7.40;;;;;;;;;;143731;653;47018;-88
2021/06/09 07:42:57;;;;;;;8.82;6.78;;;;;;;;;;143735;570;46011;-86
2021/06/09 07:45:26;;;;;;;15.38;6.87;;;;;;;;;;143735;626;46012;-86
2021/06/09 07:47:54;;;;;;;7.03;6.32;;;;;;;;;;143735;584;46010;-86
2021/06/09 07:50:29;;;;;;;14.60;6.50;;;;;;;;;;143734;575;46027;-86
2021/06/09 07:53:04;;;;;;;14.00;6.72;;;;;;;;;;143733;600;46010;-85
2021/06/09 07:55:32;;;;;;;8.95;6.57;;;;;;;;;;143734;614;46018;-86
2021/06/09 07:58:00;;;;;;;10.27;6.70;;;;;;;;;;143734;605;46022;-85
2021/06/09 08:00:27;;;;;;;9.55;6.32;;;;;;;;;;143732;604;46021;-84
2021/06/09 08:02:56;;;;;;;17.30;6.82;;;;;;;;;;143733;598;46010;-84
2021/06/09 08:05:25;;;;;;;10.55;6.65;;;;;;;;;;143736;613;46013;-85
2021/06/09 08:07:52;;;;;;;12.85;6.22;;;;;;;;;;143736;578;46010;-84
2021/06/09 08:10:20;;;;;;;14.82;6.60;;;;;;;;;;143733;591;46018;-84
2021/06/09 08:12:56;;;;;;;10.70;6.55;;;;;;;;;;143734;592;46010;-84
2021/06/09 08:15:24;;;;;;;8.93;6.03;;;;;;;;;;143736;566;46018;-85
2021/06/09 08:17:51;;;;;;;6.35;5.68;;;;;;;;;;143737;585;46010;-87
2021/06/09 08:20:22;;;;;;;14.68;6.28;;;;;;;;;;143734;617;46012;-87
2021/06/09 08:22:49;;;;;;;9.35;5.72;;;;;;;;;;143734;610;46010;-87
2021/06/09 08:25:19;;;;;;;9.82;6.18;;;;;;;;;;143736;576;46018;-86
2021/06/09 08:27:52;;;;;;;10.02;6.80;;;;;;;;;;143735;564;46011;-87
2021/06/09 08:30:28;;;;;;;6.20;5.60;;;;;;;;;;143736;685;46012;-86
2021/06/09 08:33:07;;;;;;;10.27;5.15;;;;;;;;;;143733;575;46010;-86
2021/06/09 08:35:43;;;;;;;9.85;6.65;;;;;;;;;;143734;580;46021;-86
2021/06/09 08:38:14;;;;;;;9.85;5.50;;;;;;;;;;143736;593;46020;-87
2021/06/09 08:40:41;;;;;;;7.65;5.90;;;;;;;;;;143731;582;47020;-85
2021/06/09 08:43:17;;;;;;;7.72;5.25;;;;;;;;;;143734;588;46010;-87
2021/06/09 08:45:58;;;;;;;9.05;5.45;;;;;;;;;;143736;620;46018;-87
2021/06/09 08:48:29;;;;;;;12.80;6.55;;;;;;;;;;143736;575;46010;-87
2021/06/09 08:50:59;;;;;;;12.95;5.97;;;;;;;;;;143733;582;46020;-84
2021/06/09 08:53:30;;;;;;;9.32;6.60;;;;;;;;;;143735;564;46022;-86
2021/06/09 08:55:57;;;;;;;9.57;5.82;;;;;;;;;;143735;573;46018;-86
2021/06/09 08:58:26;;;;;;;7.57;6.12;;;;;;;;;;143736;585;46011;-87
2021/06/09 09:01:03;;;;;;;7.05;5.82;;;;;;;;;;143734;569;46012;-88
2021/06/09 09:03:33;;;;;;;9.77;5.87;;;;;;;;;;143737;585;46010;-87
2021/06/09 09:06:00;;;;;;;8.85;5.68;;;;;;;;;;143736;566;46019;-86
2021/06/09 09:08:26;;;;;;;7.18;4.90;;;;;;;;;;143736;571;46010;-87
2021/06/09 09:10:53;;;;;;;8.63;4.93;;;;;;;;;;143734;642;46012;-86
2021/06/09 09:13:21;;;;;;;8.77;4.85;;;;;;;;;;143735;569;46010;-87
2021/06/09 09:15:56;;;;;;;7.45;4.55;;;;;;;;;;143737;564;46018;-85
2021/06/09 09:18:37;;;;;;;5.00;4.50;;;;;;;;;;143739;652;46010;-86
2021/06/09 09:21:05;;;;;;;6.78;5.18;;;;;;;;;;143736;601;46019;-87
2021/06/09 09:23:35;;;;;;;9.25;5.80;;;;;;;;;;143733;635;46010;-87
2021/06/09 09:26:23;;;;;;;7.97;5.97;;;;;;;;;;143735;606;46018;-87
2021/06/09 09:28:50;;;;;;;7.93;6.22;;;;;;;;;;143737;573;46011;-87
2021/06/09 09:31:19;;;;;;;7.22;5.60;;;;;;;;;;143735;580;47018;-86
2021/06/09 09:33:47;;;;;;;8.80;6.65;;;;;;;;;;143735;615;46022;-88
2021/06/09 09:36:32;;;;;;;9.77;6.78;;;;;;;;;;143737;587;46018;-86
2021/06/09 09:39:00;;;;;;;11.40;7.78;;;;;;;;;;143738;602;46020;-85
2021/06/09 09:41:31;;;;;;;8.23;6.87;;;;;;;;;;143736;657;46020;-87
2021/06/09 09:44:05;;;;;;;10.18;6.15;;;;;;;;;;143738;572;46022;-87
2021/06/09 09:46:44;;;;;;;13.70;7.37;;;;;;;;;;322742;65;236797;-87
2021/06/09 09:49:17;;;;;;;7.50;5.97;;;;;;;;;;143739;564;46022;-87
2021/06/09 09:52:01;;;;;;;;;;;;;;;;;;143739;978;46021;-86
2021/06/09 09:54:35;;;;;;;14.38;6.45;;;;;;;;;;143746;577;46010;-87
2021/06/09 09:57:07;;;;;;;11.80;6.53;;;;;;;;;;143735;600;46020;-86
2021/06/09 09:59:35;;;;;;;11.45;6.75;;;;;;;;;;143737;570;46010;-87
2021/06/09 10:02:31;;;;;;;9.40;7.32;;;;;;;;;;143736;593;46018;-87
2021/06/09 10:05:12;;;;;;;11.23;7.45;;;;;;;;;;143735;597;46023;-87
2021/06/09 10:07:39;;;;;;;12.18;7.07;;;;;;;;;;143736;600;46018;-88
2021/06/09 10:10:24;;;;;;;11.52;7.37;;;;;;;;;;143737;635;46010;-86
2021/06/09 10:13:20;;;;;;;11.02;7.25;;;;;;;;;;143735;600;46019;-87
2021/06/09 10:15:47;;;;;;;11.48;6.87;;;;;;;;;;143733;565;46010;-86
2021/06/09 10:18:18;;;;;;;7.80;6.28;;;;;;;;;;143734;648;46018;-86
2021/06/09 10:20:48;;;;;;;9.18;7.37;;;;;;;;;;143738;577;46010;-87
2021/06/09 10:23:39;;;;;;;10.13;7.03;;;;;;;;;;143736;571;46020;-89
2021/06/09 10:26:14;;;;;;;9.68;6.32;;;;;;;;;;143736;572;46010;-87
2021/06/09 10:29:05;;;;;;;9.10;7.50;;;;;;;;;;143736;575;46012;-88
2021/06/09 10:31:40;;;;;;;7.12;6.43;;;;;;;;;;143733;596;50010;-87
2021/06/09 10:34:10;;;;;;;8.70;6.50;;;;;;;;;;143736;579;46020;-88
2021/06/09 10:36:56;;;;;;;13.77;6.10;;;;;;;;;;143735;641;46022;-86
2021/06/09 10:39:25;;;;;;;7.20;6.50;;;;;;;;;;143736;585;46018;-87
2021/06/09 10:41:56;;;;;;;12.80;7.55;;;;;;;;;;143739;570;46010;-87
2021/06/09 10:44:26;;;;;;;13.45;7.78;;;;;;;;;;143734;586;46020;-88
2021/06/09 10:47:00;;;;;;;6.82;5.80;;;;;;;;;;143734;573;46920;-90
2021/06/09 10:49:32;;;;;;;12.15;6.75;;;;;;;;;;143736;631;46019;-86
2021/06/09 10:51:59;;;;;;;;;;;;;;;;;;143742;979;46010;-87
2021/06/09 10:54:25;;;;;;;11.27;6.90;;;;;;;;;;143745;569;46026;-87
2021/06/09 10:56:54;;;;;;;11.90;5.82;;;;;;;;;;143736;584;46012;-86
2021/06/09 10:59:28;;;;;;;10.85;6.95;;;;;;;;;;143738;566;46018;-88
2021/06/09 11:02:08;;;;;;;8.18;5.50;;;;;;;;;;143737;617;46012;-92
2021/06/09 11:04:53;;;;;;;9.88;6.22;;;;;;;;;;143733;596;48034;-88
2021/06/09 11:07:30;;;;;;;8.00;5.97;;;;;;;;;;143734;596;46012;-89
2021/06/09 11:09:59;;;;;;;7.18;5.03;;;;;;;;;;143735;585;46018;-89
2021/06/09 11:12:53;;;;;;;9.27;5.25;;;;;;;;;;143737;598;46013;-92
2021/06/09 11:15:22;;;;;;;8.20;5.43;;;;;;;;;;143739;567;46014;-90
2021/06/09 11:17:53;;;;;;;10.65;5.32;;;;;;;;;;143734;563;46032;-91
2021/06/09 11:20:37;;;;;;;7.78;4.95;;;;;;;;;;143737;575;46019;-93
2021/06/09 11:23:29;;;;;;;8.75;5.22;;;;;;;;;;143737;569;46012;-91
2021/06/09 11:25:57;;;;;;;6.12;5.35;;;;;;;;;;143734;603;46048;-86
2021/06/09 11:28:38;;;;;;;8.18;7.07;;;;;;;;;;143733;614;47012;-87
2021/06/09 11:31:14;;;;;;;13.52;6.72;;;;;;;;;;143736;623;46018;-87
2021/06/09 11:34:06;;;;;;;8.85;5.97;;;;;;;;;;143738;589;46012;-87
2021/06/09 11:36:38;;;;;;;7.62;6.20;;;;;;;;;;143736;577;46018;-87
2021/06/09 11:39:23;;;;;;;12.60;6.80;;;;;;;;;;143734;609;46012;-87
2021/06/09 11:41:51;;;;;;;8.57;6.45;;;;;;;;;;143735;607;46019;-87
2021/06/09 11:44:42;;;;;;;8.20;6.22;;;;;;;;;;143737;620;46012;-89
2021/06/09 11:47:37;;;;;;;10.80;6.75;;;;;;;;;;143735;605;46020;-86
2021/06/09 11:50:26;;;;;;;7.03;6.12;;;;;;;;;;143738;564;45023;-87
2021/06/09 11:53:13;;;;;;;10.27;6.68;;;;;;;;;;143737;565;46018;-87
2021/06/09 11:55:43;;;;;;;6.82;5.90;;;;;;;;;;143737;617;46012;-87
2021/06/09 11:58:20;;;;;;;8.43;6.53;;;;;;;;;;143737;602;46016;-88
2021/06/09 12:01:06;;;;;;;7.55;4.72;;;;;;;;;;143734;594;46012;-87
2021/06/09 12:03:33;;;;;;;5.25;4.72;;;;;;;;;;143737;597;46019;-87
2021/06/09 12:06:14;;;;;;;7.10;5.40;;;;;;;;;;143737;592;46012;-88
2021/06/09 12:08:41;;;;;;;5.32;4.32;;;;;;;;;;143734;619;46020;-86
2021/06/09 12:11:08;;;;;;;7.43;5.50;;;;;;;;;;143735;576;46013;-86
2021/06/09 12:13:35;;;;;;;5.65;5.12;;;;;;;;;;143737;617;46019;-85
2021/06/09 12:16:17;;;;;;;6.80;4.70;;;;;;;;;;143736;571;46012;-87
2021/06/09 12:18:48;;;;;;;6.35;4.90;;;;;;;;;;143734;589;46027;-84
2021/06/09 12:21:22;;;;;;;8.73;6.12;;;;;;;;;;143733;589;46921;-86
2021/06/09 12:24:02;;;;;;;12.50;6.07;;;;;;;;;;143737;623;46018;-87
2021/06/09 12:26:30;;;;;;;9.63;6.20;;;;;;;;;;143737;652;46013;-85
2021/06/09 12:29:05;;;;;;;12.07;8.15;;;;;;;;;;143733;647;46014;-86
2021/06/09 12:31:36;;;;;;;21.65;8.93;;;;;;;;;;143735;571;46022;-86
2021/06/09 12:34:05;;;;;;;16.33;8.32;;;;;;;;;;143737;585;46019;-87
2021/06/09 12:36:34;;;;;;;18.08;7.15;;;;;;;;;;143737;638;46012;-85
2021/06/09 12:39:13;;;;;;;23.10;7.20;;;;;;;;;;143735;587;46016;-86
2021/06/09 12:41:45;;;;;;;7.93;5.72;;;;;;;;;;143737;571;46013;-86
2021/06/09 12:44:13;;;;;;;7.77;6.67;;;;;;;;;;143737;608;46016;-88
2021/06/09 12:46:39;;;;;;;9.40;6.53;;;;;;;;;;143738;596;46012;-86
2021/06/09 12:49:24;;;;;;;9.82;7.00;;;;;;;;;;143738;564;46016;-85
2021/06/09 12:52:02;;;;;;;12.05;7.93;;;;;;;;;;143739;667;45022;-85
2021/06/09 12:54:28;;;;;;;8.82;7.15;;;;;;;;;;143737;586;46018;-86
2021/06/09 12:56:55;;;;;;;8.30;6.90;;;;;;;;;;143739;580;46023;-87
2021/06/09 12:59:37;;;;;;;8.85;6.95;;;;;;;;;;143737;575;46018;-87
2021/06/09 13:02:06;;;;;;;8.60;7.00;;;;;;;;;;143735;583;46012;-87
2021/06/09 13:04:41;;;;;;;6.32;5.78;;;;;;;;;;143737;639;46019;-86
2021/06/09 13:07:10;;;;;;;14.35;7.65;;;;;;;;;;143738;593;46022;-87
2021/06/09 13:09:38;;;;;;;10.30;7.72;;;;;;;;;;143734;569;46018;-86
2021/06/09 13:12:12;;;;;;;10.52;7.07;;;;;;;;;;143736;605;46012;-85
2021/06/09 13:14:39;;;;;;;11.10;7.82;;;;;;;;;;143738;570;45034;-87
2021/06/09 13:17:12;;;;;;;8.82;5.80;;;;;;;;;;143737;578;46012;-87
2021/06/09 13:19:39;;;;;;;8.50;6.32;;;;;;;;;;143737;608;46021;-86
2021/06/09 13:22:05;;;;;;;11.12;6.30;;;;;;;;;;143736;616;46012;-87
2021/06/09 13:24:38;;;;;;;6.07;5.47;;;;;;;;;;143737;601;46018;-87
2021/06/09 13:27:19;;;;;;;6.57;5.15;;;;;;;;;;143737;639;46013;-88
2021/06/09 13:29:54;;;;;;;8.32;5.45;;;;;;;;;;143734;632;46020;-86
2021/06/09 13:32:27;;;;;;;7.75;5.25;;;;;;;;;;143732;576;46921;-87
2021/06/09 13:35:08;;;;;;;6.70;5.00;;;;;;;;;;143735;597;46019;-87
2021/06/09 13:37:40;;;;;;;5.90;5.20;;;;;;;;;;143735;569;46012;-88
2021/06/09 13:40:15;;;;;;;6.47;4.80;;;;;;;;;;143731;617;47020;-88
2021/06/09 13:42:44;;;;;;;8.50;5.15;;;;;;;;;;143733;579;46022;-88
2021/06/09 13:45:40;;;;;;;6.50;4.97;;;;;;;;;;143730;589;46018;-89
2021/06/09 13:48:21;;;;;;;6.32;4.40;;;;;;;;;;143734;622;46014;-87
2021/06/09 13:51:04;;;;;;;6.28;5.30;;;;;;;;;;143732;603;46020;-85
2021/06/09 13:53:34;;;;;;;5.22;4.60;;;;;;;;;;143733;618;46012;-88
2021/06/09 13:56:02;;;;;;;4.80;4.10;;;;;;;;;;143732;612;46019;-87
2021/06/09 13:58:33;;;;;;;6.97;5.00;;;;;;;;;;143736;586;46022;-86
2021/06/09 14:01:16;;;;;;;7.78;5.30;;;;;;;;;;143732;564;46020;-85
2021/06/09 14:03:42;;;;;;;;;;;;;;;;;;143736;978;46013;-87
2021/06/09 14:06:14;;;;;;;10.35;4.43;;;;;;;;;;143745;632;46018;-87
2021/06/09 14:08:40;;;;;;;6.80;5.18;;;;;;;;;;143735;571;46010;-87
2021/06/09 14:11:07;;;;;;;7.72;4.68;;;;;;;;;;143733;581;46020;-86
2021/06/09 14:13:36;;;;;;;4.75;3.97;;;;;;;;;;143735;647;46010;-86
2021/06/09 14:16:07;;;;;;;11.27;5.15;;;;;;;;;;143735;563;46018;-86
2021/06/09 14:18:40;;;;;;;5.30;4.80;;;;;;;;;;143735;599;46010;-87
2021/06/09 14:21:09;;;;;;;7.68;5.32;;;;;;;;;;143733;581;46020;-87
2021/06/09 14:23:40;;;;;;;7.18;5.50;;;;;;;;;;143732;587;46010;-86
2021/06/09 14:26:11;;;;;;;6.95;5.47;;;;;;;;;;143733;592;46018;-86
2021/06/09 14:28:42;;;;;;;5.75;4.57;;;;;;;;;;143732;607;47010;-86
2021/06/09 14:31:21;;;;;;;9.57;4.85;;;;;;;;;;143732;609;46020;-85
2021/06/09 14:34:07;;;;;;;8.52;5.37;;;;;;;;;;143733;647;46010;-88
2021/06/09 14:36:46;;;;;;;10.45;8.00;;;;;;;;;;143734;593;46018;-86
2021/06/09 14:39:30;;;;;;;10.25;8.70;;;;;;;;;;143736;613;45026;-86
2021/06/09 14:42:08;;;;;;;10.13;8.98;;;;;;;;;;143736;586;46012;-89
2021/06/09 14:44:49;;;;;;;13.90;8.82;;;;;;;;;;143736;573;45022;-88
2021/06/09 14:47:42;;;;;;;8.57;6.62;;;;;;;;;;143737;571;46019;-86
2021/06/09 14:50:10;;;;;;;10.30;7.68;;;;;;;;;;143735;587;46010;-86
2021/06/09 14:52:39;;;;;;;12.52;8.35;;;;;;;;;;143733;603;46018;-86
2021/06/09 14:55:15;;;;;;;8.57;6.50;;;;;;;;;;143733;582;46011;-87
2021/06/09 14:57:43;;;;;;;14.95;8.10;;;;;;;;;;143734;580;46020;-88
2021/06/09 15:00:17;;;;;;;7.95;7.15;;;;;;;;;;143735;569;46012;-86
2021/06/09 15:02:45;;;;;;;9.85;7.03;;;;;;;;;;143734;570;46019;-87
2021/06/09 15:05:13;;;;;;;11.90;8.45;;;;;;;;;;143733;639;46010;-89
2021/06/09 15:07:41;;;;;;;7.07;6.12;;;;;;;;;;143735;644;46018;-86
2021/06/09 15:10:09;;;;;;;9.68;5.62;;;;;;;;;;143736;612;46022;-87
2021/06/09 15:12:36;;;;;;;11.23;8.00;;;;;;;;;;143735;569;46014;-87